sensor_id;sensor_type;location;lat;lon;timestamp;pressure;altitude;pressure_sealevel;temperature;humidity
27729;BME280;15126;42.186;24.340;2023-08-07T00:00:34;98489.69;;;24.22;52.24
27729;BME280;15126;42.186;24.340;2023-08-07T00:03:01;98469.41;;;24.13;52.58
27729;BME280;15126;42.186;24.340;2023-08-07T00:05:29;98497.84;;;24.32;51.84
27729;BME280;15126;42.186;24.340;2023-08-07T00:07:56;98494.22;;;24.31;52.97
27729;BME280;15126;42.186;24.340;2023-08-07T00:10:23;98496.06;;;24.28;51.55
27729;BME280;15126;42.186;24.340;2023-08-07T00:12:49;98491.16;;;24.29;52.13
27729;BME280;15126;42.186;24.340;2023-08-07T00:15:16;98491.78;;;24.22;52.64
27729;BME280;15126;42.186;24.340;2023-08-07T00:17:43;98499.66;;;24.16;53.00
27729;BME280;15126;42.186;24.340;2023-08-07T00:20:10;98511.28;;;24.18;53.26
27729;BME280;15126;42.186;24.340;2023-08-07T00:22:38;98511.38;;;24.12;53.16
27729;BME280;15126;42.186;24.340;2023-08-07T00:25:05;98503.97;;;24.04;53.47
27729;BME280;15126;42.186;24.340;2023-08-07T00:27:32;98515.06;;;24.07;53.87
27729;BME280;15126;42.186;24.340;2023-08-07T00:29:59;98516.34;;;24.06;54.23
27729;BME280;15126;42.186;24.340;2023-08-07T00:32:26;98510.75;;;24.01;53.32
27729;BME280;15126;42.186;24.340;2023-08-07T00:34:52;98501.97;;;23.99;52.45
27729;BME280;15126;42.186;24.340;2023-08-07T00:37:19;98512.38;;;23.96;53.22
27729;BME280;15126;42.186;24.340;2023-08-07T00:39:47;98517.94;;;23.89;52.86
27729;BME280;15126;42.186;24.340;2023-08-07T00:42:14;98530.59;;;23.75;53.15
27729;BME280;15126;42.186;24.340;2023-08-07T00:44:41;98535.81;;;23.70;53.22
27729;BME280;15126;42.186;24.340;2023-08-07T00:47:08;98538.97;;;23.48;54.32
27729;BME280;15126;42.186;24.340;2023-08-07T00:49:35;98548.13;;;23.41;53.65
27729;BME280;15126;42.186;24.340;2023-08-07T00:52:03;98543.84;;;23.29;53.99
27729;BME280;15126;42.186;24.340;2023-08-07T00:54:30;98557.84;;;23.27;53.68
27729;BME280;15126;42.186;24.340;2023-08-07T00:57:03;98545.38;;;23.11;54.11
27729;BME280;15126;42.186;24.340;2023-08-07T00:59:32;98572.13;;;23.22;54.52
27729;BME280;15126;42.186;24.340;2023-08-07T01:01:59;98569.97;;;23.09;54.41
27729;BME280;15126;42.186;24.340;2023-08-07T01:04:26;98580.91;;;22.99;55.08
27729;BME280;15126;42.186;24.340;2023-08-07T01:06:54;98565.81;;;22.86;54.90
27729;BME280;15126;42.186;24.340;2023-08-07T01:09:20;98571.25;;;22.84;55.67
27729;BME280;15126;42.186;24.340;2023-08-07T01:11:50;98568.75;;;22.75;56.00
27729;BME280;15126;42.186;24.340;2023-08-07T01:14:28;98565.91;;;22.75;55.83
27729;BME280;15126;42.186;24.340;2023-08-07T01:17:01;98571.03;;;22.82;55.52
27729;BME280;15126;42.186;24.340;2023-08-07T01:19:29;98562.56;;;22.76;56.60
27729;BME280;15126;42.186;24.340;2023-08-07T01:22:07;98566.69;;;22.75;55.65
27729;BME280;15126;42.186;24.340;2023-08-07T01:24:34;98576.06;;;22.70;56.38
27729;BME280;15126;42.186;24.340;2023-08-07T01:27:10;98572.22;;;22.62;56.23
27729;BME280;15126;42.186;24.340;2023-08-07T01:29:43;98530.06;;;22.42;56.29
27729;BME280;15126;42.186;24.340;2023-08-07T01:32:15;98559.34;;;22.61;56.69
27729;BME280;15126;42.186;24.340;2023-08-07T01:34:45;98556.78;;;22.58;56.49
27729;BME280;15126;42.186;24.340;2023-08-07T01:37:15;98556.59;;;22.50;57.14
27729;BME280;15126;42.186;24.340;2023-08-07T01:39:43;98561.28;;;22.47;57.95
27729;BME280;15126;42.186;24.340;2023-08-07T01:42:12;98556.38;;;22.42;57.91
27729;BME280;15126;42.186;24.340;2023-08-07T01:44:39;98552.56;;;22.34;57.62
27729;BME280;15126;42.186;24.340;2023-08-07T01:47:06;98555.97;;;22.33;57.92
27729;BME280;15126;42.186;24.340;2023-08-07T01:49:32;98548.25;;;22.28;58.20
27729;BME280;15126;42.186;24.340;2023-08-07T01:51:59;98557.28;;;22.26;58.35
27729;BME280;15126;42.186;24.340;2023-08-07T01:54:27;98555.00;;;22.25;58.59
27729;BME280;15126;42.186;24.340;2023-08-07T01:56:54;98567.97;;;22.20;58.43
27729;BME280;15126;42.186;24.340;2023-08-07T01:59:21;98573.38;;;22.18;58.58
27729;BME280;15126;42.186;24.340;2023-08-07T02:01:48;98574.44;;;22.15;57.90
27729;BME280;15126;42.186;24.340;2023-08-07T02:04:14;98588.63;;;22.15;58.30
27729;BME280;15126;42.186;24.340;2023-08-07T02:06:41;98593.06;;;22.11;58.53
27729;BME280;15126;42.186;24.340;2023-08-07T02:09:08;98601.16;;;22.01;58.82
27729;BME280;15126;42.186;24.340;2023-08-07T02:11:36;98606.56;;;21.99;58.58
27729;BME280;15126;42.186;24.340;2023-08-07T02:14:03;98602.22;;;21.92;59.19
27729;BME280;15126;42.186;24.340;2023-08-07T02:16:29;98612.75;;;22.03;58.94
27729;BME280;15126;42.186;24.340;2023-08-07T02:18:56;98601.72;;;21.83;59.58
27729;BME280;15126;42.186;24.340;2023-08-07T02:21:26;98618.69;;;22.00;59.67
27729;BME280;15126;42.186;24.340;2023-08-07T02:23:52;98619.72;;;22.02;59.18
27729;BME280;15126;42.186;24.340;2023-08-07T02:26:19;98632.38;;;22.01;59.69
27729;BME280;15126;42.186;24.340;2023-08-07T02:28:47;98618.19;;;22.01;59.76
27729;BME280;15126;42.186;24.340;2023-08-07T02:31:14;98622.78;;;22.04;59.85
27729;BME280;15126;42.186;24.340;2023-08-07T02:33:41;98629.78;;;22.03;59.92
27729;BME280;15126;42.186;24.340;2023-08-07T02:36:08;98631.59;;;22.01;60.09
27729;BME280;15126;42.186;24.340;2023-08-07T02:38:34;98636.00;;;21.96;59.22
27729;BME280;15126;42.186;24.340;2023-08-07T02:41:01;98629.34;;;21.88;59.40
27729;BME280;15126;42.186;24.340;2023-08-07T02:43:28;98634.47;;;21.95;59.48
27729;BME280;15126;42.186;24.340;2023-08-07T02:45:59;98643.78;;;21.96;59.70
27729;BME280;15126;42.186;24.340;2023-08-07T02:48:26;98622.91;;;21.82;60.08
27729;BME280;15126;42.186;24.340;2023-08-07T02:50:55;98646.34;;;21.93;60.43
27729;BME280;15126;42.186;24.340;2023-08-07T02:53:22;98641.72;;;21.90;60.22
27729;BME280;15126;42.186;24.340;2023-08-07T02:55:49;98646.09;;;21.86;59.93
27729;BME280;15126;42.186;24.340;2023-08-07T02:58:16;98643.25;;;21.86;59.69
27729;BME280;15126;42.186;24.340;2023-08-07T03:00:42;98648.44;;;21.93;59.46
27729;BME280;15126;42.186;24.340;2023-08-07T03:03:11;98643.28;;;21.91;59.71
27729;BME280;15126;42.186;24.340;2023-08-07T03:05:37;98647.94;;;21.89;59.85
27729;BME280;15126;42.186;24.340;2023-08-07T03:08:04;98659.78;;;21.93;59.07
27729;BME280;15126;42.186;24.340;2023-08-07T03:10:33;98653.59;;;21.94;60.04
27729;BME280;15126;42.186;24.340;2023-08-07T03:13:00;98655.63;;;21.94;59.43
27729;BME280;15126;42.186;24.340;2023-08-07T03:15:27;98653.34;;;21.92;60.88
27729;BME280;15126;42.186;24.340;2023-08-07T03:17:56;98658.25;;;21.92;59.73
27729;BME280;15126;42.186;24.340;2023-08-07T03:20:24;98653.09;;;21.85;59.43
27729;BME280;15126;42.186;24.340;2023-08-07T03:22:51;98661.34;;;21.88;60.08
27729;BME280;15126;42.186;24.340;2023-08-07T03:25:18;98657.47;;;21.86;60.65
27729;BME280;15126;42.186;24.340;2023-08-07T03:27:45;98668.81;;;21.91;60.79
27729;BME280;15126;42.186;24.340;2023-08-07T03:30:12;98669.34;;;21.90;60.09
27729;BME280;15126;42.186;24.340;2023-08-07T03:32:38;98670.41;;;21.81;61.21
27729;BME280;15126;42.186;24.340;2023-08-07T03:35:07;98673.25;;;21.76;60.53
27729;BME280;15126;42.186;24.340;2023-08-07T03:37:37;98678.19;;;21.70;60.05
27729;BME280;15126;42.186;24.340;2023-08-07T03:40:05;98671.25;;;21.60;60.19
27729;BME280;15126;42.186;24.340;2023-08-07T03:42:32;98673.09;;;21.57;60.47
27729;BME280;15126;42.186;24.340;2023-08-07T03:44:59;98677.19;;;21.62;60.55
27729;BME280;15126;42.186;24.340;2023-08-07T03:47:25;98680.81;;;21.62;60.63
27729;BME280;15126;42.186;24.340;2023-08-07T03:49:52;98677.19;;;21.62;60.39
27729;BME280;15126;42.186;24.340;2023-08-07T03:52:19;98680.03;;;21.62;60.48
27729;BME280;15126;42.186;24.340;2023-08-07T03:54:47;98686.47;;;21.68;61.12
27729;BME280;15126;42.186;24.340;2023-08-07T03:57:14;98691.09;;;21.71;60.61
27729;BME280;15126;42.186;24.340;2023-08-07T03:59:41;98689.03;;;21.71;61.51
27729;BME280;15126;42.186;24.340;2023-08-07T04:02:07;98681.31;;;21.55;62.19
27729;BME280;15126;42.186;24.340;2023-08-07T04:04:34;98686.53;;;21.46;61.74
27729;BME280;15126;42.186;24.340;2023-08-07T04:07:01;98699.41;;;21.58;61.95
27729;BME280;15126;42.186;24.340;2023-08-07T04:09:28;98698.63;;;21.52;61.49
27729;BME280;15126;42.186;24.340;2023-08-07T04:11:56;98715.63;;;21.63;62.34
27729;BME280;15126;42.186;24.340;2023-08-07T04:14:23;98709.94;;;21.74;61.71
27729;BME280;15126;42.186;24.340;2023-08-07T04:16:50;98716.78;;;22.06;61.88
27729;BME280;15126;42.186;24.340;2023-08-07T04:19:16;98715.13;;;22.63;60.40
27729;BME280;15126;42.186;24.340;2023-08-07T04:21:44;98719.22;;;23.32;57.55
27729;BME280;15126;42.186;24.340;2023-08-07T04:24:10;98721.50;;;24.06;56.13
27729;BME280;15126;42.186;24.340;2023-08-07T04:26:37;98724.84;;;24.66;54.65
27729;BME280;15126;42.186;24.340;2023-08-07T04:29:06;98724.72;;;25.22;52.44
27729;BME280;15126;42.186;24.340;2023-08-07T04:31:32;98732.16;;;25.83;51.72
27729;BME280;15126;42.186;24.340;2023-08-07T04:33:59;98721.16;;;26.27;50.81
27729;BME280;15126;42.186;24.340;2023-08-07T04:36:26;98718.94;;;26.67;49.01
27729;BME280;15126;42.186;24.340;2023-08-07T04:38:53;98715.03;;;26.90;48.69
27729;BME280;15126;42.186;24.340;2023-08-07T04:41:20;98705.59;;;27.03;47.39
27729;BME280;15126;42.186;24.340;2023-08-07T04:43:47;98715.78;;;27.11;46.43
27729;BME280;15126;42.186;24.340;2023-08-07T04:46:16;98720.13;;;27.26;48.24
27729;BME280;15126;42.186;24.340;2023-08-07T04:48:42;98728.06;;;27.19;46.88
27729;BME280;15126;42.186;24.340;2023-08-07T04:51:09;98723.41;;;27.09;45.95
27729;BME280;15126;42.186;24.340;2023-08-07T04:53:36;98725.69;;;26.90;47.18
27729;BME280;15126;42.186;24.340;2023-08-07T04:56:03;98712.09;;;26.70;46.89
27729;BME280;15126;42.186;24.340;2023-08-07T04:58:30;98724.03;;;26.60;47.01
27729;BME280;15126;42.186;24.340;2023-08-07T05:00:59;98719.75;;;26.54;49.80
27729;BME280;15126;42.186;24.340;2023-08-07T05:03:27;98721.88;;;26.40;47.31
27729;BME280;15126;42.186;24.340;2023-08-07T05:05:59;98734.00;;;26.33;50.18
27729;BME280;15126;42.186;24.340;2023-08-07T05:08:26;98725.44;;;26.20;47.75
27729;BME280;15126;42.186;24.340;2023-08-07T05:10:52;98720.72;;;26.10;49.30
27729;BME280;15126;42.186;24.340;2023-08-07T05:13:19;98713.38;;;25.75;49.53
27729;BME280;15126;42.186;24.340;2023-08-07T05:15:47;98736.00;;;25.73;49.24
27729;BME280;15126;42.186;24.340;2023-08-07T05:18:15;98726.00;;;25.53;50.26
27729;BME280;15126;42.186;24.340;2023-08-07T05:20:43;98725.09;;;25.45;50.14
27729;BME280;15126;42.186;24.340;2023-08-07T05:23:10;98722.38;;;25.53;51.01
27729;BME280;15126;42.186;24.340;2023-08-07T05:25:37;98723.81;;;25.59;51.49
27729;BME280;15126;42.186;24.340;2023-08-07T05:28:06;98719.69;;;25.28;50.56
27729;BME280;15126;42.186;24.340;2023-08-07T05:30:33;98719.03;;;25.35;51.24
27729;BME280;15126;42.186;24.340;2023-08-07T05:33:00;98718.75;;;25.52;50.82
27729;BME280;15126;42.186;24.340;2023-08-07T05:35:26;98705.25;;;25.53;51.15
27729;BME280;15126;42.186;24.340;2023-08-07T05:37:56;98717.88;;;25.70;50.89
27729;BME280;15126;42.186;24.340;2023-08-07T05:40:25;98719.88;;;25.62;50.49
27729;BME280;15126;42.186;24.340;2023-08-07T05:42:52;98710.63;;;25.69;50.10
27729;BME280;15126;42.186;24.340;2023-08-07T05:45:19;98721.19;;;26.00;50.77
27729;BME280;15126;42.186;24.340;2023-08-07T05:47:46;98729.28;;;26.23;50.87
27729;BME280;15126;42.186;24.340;2023-08-07T05:50:13;98724.88;;;26.35;48.77
27729;BME280;15126;42.186;24.340;2023-08-07T05:52:39;98725.97;;;26.32;48.50
27729;BME280;15126;42.186;24.340;2023-08-07T05:55:08;98717.84;;;26.36;48.32
27729;BME280;15126;42.186;24.340;2023-08-07T05:57:35;98723.31;;;26.47;48.06
27729;BME280;15126;42.186;24.340;2023-08-07T06:00:04;98710.28;;;26.59;51.05
27729;BME280;15126;42.186;24.340;2023-08-07T06:02:31;98712.63;;;26.81;51.52
27729;BME280;15126;42.186;24.340;2023-08-07T06:04:57;98712.16;;;26.90;47.32
27729;BME280;15126;42.186;24.340;2023-08-07T06:07:24;98723.81;;;27.13;48.95
27729;BME280;15126;42.186;24.340;2023-08-07T06:09:51;98719.97;;;27.31;47.38
27729;BME280;15126;42.186;24.340;2023-08-07T06:12:19;98717.50;;;27.56;48.24
27729;BME280;15126;42.186;24.340;2023-08-07T06:14:46;98718.94;;;27.70;44.82
27729;BME280;15126;42.186;24.340;2023-08-07T06:17:17;98710.56;;;27.72;44.59
27729;BME280;15126;42.186;24.340;2023-08-07T06:19:47;98703.66;;;27.75;43.99
27729;BME280;15126;42.186;24.340;2023-08-07T06:22:13;98704.53;;;27.91;45.65
27729;BME280;15126;42.186;24.340;2023-08-07T06:24:40;98707.25;;;27.96;45.04
27729;BME280;15126;42.186;24.340;2023-08-07T06:27:07;98705.22;;;28.04;45.21
27729;BME280;15126;42.186;24.340;2023-08-07T06:29:35;98708.13;;;28.12;44.84
27729;BME280;15126;42.186;24.340;2023-08-07T06:32:02;98713.50;;;28.15;46.55
27729;BME280;15126;42.186;24.340;2023-08-07T06:34:29;98712.75;;;28.22;44.86
27729;BME280;15126;42.186;24.340;2023-08-07T06:36:56;98704.59;;;28.42;44.22
27729;BME280;15126;42.186;24.340;2023-08-07T06:39:23;98721.84;;;28.49;46.47
27729;BME280;15126;42.186;24.340;2023-08-07T06:41:50;98720.22;;;28.69;44.93
27729;BME280;15126;42.186;24.340;2023-08-07T06:44:16;98708.38;;;28.80;45.57
27729;BME280;15126;42.186;24.340;2023-08-07T06:46:44;98714.72;;;29.01;47.82
27729;BME280;15126;42.186;24.340;2023-08-07T06:49:11;98719.13;;;29.17;47.79
27729;BME280;15126;42.186;24.340;2023-08-07T06:51:40;98728.34;;;29.23;44.49
27729;BME280;15126;42.186;24.340;2023-08-07T06:54:07;98727.19;;;29.41;43.39
27729;BME280;15126;42.186;24.340;2023-08-07T06:56:34;98719.13;;;29.55;41.18
27729;BME280;15126;42.186;24.340;2023-08-07T06:59:02;98725.66;;;29.56;45.37
27729;BME280;15126;42.186;24.340;2023-08-07T07:01:29;98732.16;;;29.64;42.61
27729;BME280;15126;42.186;24.340;2023-08-07T07:03:59;98739.63;;;29.67;43.61
27729;BME280;15126;42.186;24.340;2023-08-07T07:06:25;98712.25;;;29.35;40.55
27729;BME280;15126;42.186;24.340;2023-08-07T07:08:52;98722.59;;;29.31;41.12
27729;BME280;15126;42.186;24.340;2023-08-07T07:11:20;98732.94;;;29.57;43.57
27729;BME280;15126;42.186;24.340;2023-08-07T07:13:49;98724.50;;;29.66;44.85
27729;BME280;15126;42.186;24.340;2023-08-07T07:16:16;98722.59;;;29.61;40.55
27729;BME280;15126;42.186;24.340;2023-08-07T07:18:43;98727.97;;;29.49;40.33
27729;BME280;15126;42.186;24.340;2023-08-07T07:21:11;98701.13;;;29.55;40.71
27729;BME280;15126;42.186;24.340;2023-08-07T07:23:38;98726.19;;;29.77;41.15
27729;BME280;15126;42.186;24.340;2023-08-07T07:26:04;98710.91;;;29.67;40.53
27729;BME280;15126;42.186;24.340;2023-08-07T07:28:31;98713.75;;;29.67;41.01
27729;BME280;15126;42.186;24.340;2023-08-07T07:30:58;98716.25;;;29.70;39.16
27729;BME280;15126;42.186;24.340;2023-08-07T07:33:25;98713.94;;;29.69;38.75
27729;BME280;15126;42.186;24.340;2023-08-07T07:35:53;98712.81;;;29.87;41.58
27729;BME280;15126;42.186;24.340;2023-08-07T07:38:21;98715.66;;;29.94;38.17
27729;BME280;15126;42.186;24.340;2023-08-07T07:40:48;98707.75;;;30.10;40.84
27729;BME280;15126;42.186;24.340;2023-08-07T07:43:23;98712.06;;;30.34;40.98
27729;BME280;15126;42.186;24.340;2023-08-07T07:45:50;98703.41;;;30.34;37.99
27729;BME280;15126;42.186;24.340;2023-08-07T07:48:17;98710.88;;;30.44;38.21
27729;BME280;15126;42.186;24.340;2023-08-07T07:50:43;98714.84;;;30.56;36.01
27729;BME280;15126;42.186;24.340;2023-08-07T07:53:10;98702.25;;;30.77;36.16
27729;BME280;15126;42.186;24.340;2023-08-07T07:55:38;98707.78;;;30.82;36.09
27729;BME280;15126;42.186;24.340;2023-08-07T07:58:05;98703.72;;;30.93;35.62
27729;BME280;15126;42.186;24.340;2023-08-07T08:00:32;98713.19;;;31.10;36.20
27729;BME280;15126;42.186;24.340;2023-08-07T08:02:59;98720.06;;;31.15;37.30
27729;BME280;15126;42.186;24.340;2023-08-07T08:05:26;98694.84;;;30.98;34.96
27729;BME280;15126;42.186;24.340;2023-08-07T08:07:53;98705.41;;;31.20;36.12
27729;BME280;15126;42.186;24.340;2023-08-07T08:10:20;98702.03;;;31.14;32.62
27729;BME280;15126;42.186;24.340;2023-08-07T08:12:48;98711.66;;;31.09;34.28
27729;BME280;15126;42.186;24.340;2023-08-07T08:15:15;98705.16;;;31.09;34.23
27729;BME280;15126;42.186;24.340;2023-08-07T08:17:41;98706.56;;;31.00;35.09
27729;BME280;15126;42.186;24.340;2023-08-07T08:20:09;98695.25;;;30.95;34.68
27729;BME280;15126;42.186;24.340;2023-08-07T08:22:36;98698.69;;;31.01;33.55
27729;BME280;15126;42.186;24.340;2023-08-07T08:25:03;98699.38;;;31.09;34.03
27729;BME280;15126;42.186;24.340;2023-08-07T08:27:32;98698.56;;;31.16;34.81
27729;BME280;15126;42.186;24.340;2023-08-07T08:30:04;98684.78;;;31.07;34.28
27729;BME280;15126;42.186;24.340;2023-08-07T08:32:31;98697.78;;;31.15;35.02
27729;BME280;15126;42.186;24.340;2023-08-07T08:34:58;98677.72;;;31.25;32.68
27729;BME280;15126;42.186;24.340;2023-08-07T08:37:25;98677.41;;;31.38;32.61
27729;BME280;15126;42.186;24.340;2023-08-07T08:39:52;98680.81;;;31.44;31.44
27729;BME280;15126;42.186;24.340;2023-08-07T08:42:19;98682.13;;;31.51;33.41
27729;BME280;15126;42.186;24.340;2023-08-07T08:44:51;98675.41;;;31.48;33.63
27729;BME280;15126;42.186;24.340;2023-08-07T08:47:20;98669.53;;;31.63;33.52
27729;BME280;15126;42.186;24.340;2023-08-07T08:49:50;98657.53;;;31.67;32.17
27729;BME280;15126;42.186;24.340;2023-08-07T08:52:18;98662.72;;;31.68;32.85
27729;BME280;15126;42.186;24.340;2023-08-07T08:54:45;98655.25;;;31.48;32.18
27729;BME280;15126;42.186;24.340;2023-08-07T08:57:13;98664.31;;;31.62;32.44
27729;BME280;15126;42.186;24.340;2023-08-07T08:59:41;98655.25;;;31.65;32.89
27729;BME280;15126;42.186;24.340;2023-08-07T09:02:08;98654.75;;;31.76;32.65
27729;BME280;15126;42.186;24.340;2023-08-07T09:04:37;98652.91;;;31.71;31.92
27729;BME280;15126;42.186;24.340;2023-08-07T09:07:04;98647.63;;;31.77;31.84
27729;BME280;15126;42.186;24.340;2023-08-07T09:09:31;98646.94;;;31.69;32.46
27729;BME280;15126;42.186;24.340;2023-08-07T09:11:58;98640.31;;;31.59;33.19
27729;BME280;15126;42.186;24.340;2023-08-07T09:14:30;98638.22;;;31.60;33.77
27729;BME280;15126;42.186;24.340;2023-08-07T09:16:59;98634.41;;;31.57;35.12
27729;BME280;15126;42.186;24.340;2023-08-07T09:19:28;98637.63;;;31.78;34.96
27729;BME280;15126;42.186;24.340;2023-08-07T09:21:56;98636.84;;;31.95;34.66
27729;BME280;15126;42.186;24.340;2023-08-07T09:24:25;98631.00;;;32.03;32.69
27729;BME280;15126;42.186;24.340;2023-08-07T09:26:52;98633.72;;;32.18;32.80
27729;BME280;15126;42.186;24.340;2023-08-07T09:29:20;98617.69;;;32.34;32.76
27729;BME280;15126;42.186;24.340;2023-08-07T09:31:48;98617.25;;;32.37;31.34
27729;BME280;15126;42.186;24.340;2023-08-07T09:34:19;98608.78;;;32.39;30.90
27729;BME280;15126;42.186;24.340;2023-08-07T09:36:49;98600.16;;;32.22;30.91
27729;BME280;15126;42.186;24.340;2023-08-07T09:39:23;98616.81;;;32.41;31.84
27729;BME280;15126;42.186;24.340;2023-08-07T09:41:51;98612.59;;;32.42;31.41
27729;BME280;15126;42.186;24.340;2023-08-07T09:44:21;98605.91;;;32.49;30.62
27729;BME280;15126;42.186;24.340;2023-08-07T09:46:48;98601.84;;;32.52;31.85
27729;BME280;15126;42.186;24.340;2023-08-07T09:49:18;98597.94;;;32.57;28.91
27729;BME280;15126;42.186;24.340;2023-08-07T09:51:48;98601.47;;;32.65;29.94
27729;BME280;15126;42.186;24.340;2023-08-07T09:54:17;98599.94;;;32.64;28.71
27729;BME280;15126;42.186;24.340;2023-08-07T09:56:46;98596.94;;;32.72;31.02
27729;BME280;15126;42.186;24.340;2023-08-07T09:59:13;98582.94;;;32.68;29.15
27729;BME280;15126;42.186;24.340;2023-08-07T10:01:41;98590.75;;;32.85;30.04
27729;BME280;15126;42.186;24.340;2023-08-07T10:04:10;98584.34;;;32.86;28.44
27729;BME280;15126;42.186;24.340;2023-08-07T10:06:43;98586.03;;;32.89;28.75
27729;BME280;15126;42.186;24.340;2023-08-07T10:09:10;98582.03;;;32.75;30.26
27729;BME280;15126;42.186;24.340;2023-08-07T10:11:39;98586.94;;;32.82;30.39
27729;BME280;15126;42.186;24.340;2023-08-07T10:14:06;98581.16;;;32.82;28.86
27729;BME280;15126;42.186;24.340;2023-08-07T10:16:33;98580.75;;;32.95;30.33
27729;BME280;15126;42.186;24.340;2023-08-07T10:19:04;98573.47;;;33.04;30.36
27729;BME280;15126;42.186;24.340;2023-08-07T10:21:31;98567.25;;;33.08;31.00
27729;BME280;15126;42.186;24.340;2023-08-07T10:24:00;98571.09;;;33.20;29.34
27729;BME280;15126;42.186;24.340;2023-08-07T10:26:30;98564.88;;;33.33;29.04
27729;BME280;15126;42.186;24.340;2023-08-07T10:29:00;98554.06;;;33.24;27.95
27729;BME280;15126;42.186;24.340;2023-08-07T10:31:29;98564.56;;;33.29;29.23
27729;BME280;15126;42.186;24.340;2023-08-07T10:33:56;98548.44;;;33.26;28.40
27729;BME280;15126;42.186;24.340;2023-08-07T10:36:32;98555.72;;;33.27;27.71
27729;BME280;15126;42.186;24.340;2023-08-07T10:39:08;98550.25;;;33.31;28.96
27729;BME280;15126;42.186;24.340;2023-08-07T10:41:39;98558.00;;;33.38;28.80
27729;BME280;15126;42.186;24.340;2023-08-07T10:44:18;98560.91;;;33.38;27.76
27729;BME280;15126;42.186;24.340;2023-08-07T10:46:49;98554.38;;;33.37;27.75
27729;BME280;15126;42.186;24.340;2023-08-07T10:49:36;98547.06;;;33.36;28.01
27729;BME280;15126;42.186;24.340;2023-08-07T10:52:07;98543.72;;;33.40;28.46
27729;BME280;15126;42.186;24.340;2023-08-07T10:54:44;98546.75;;;33.32;28.18
27729;BME280;15126;42.186;24.340;2023-08-07T10:57:18;98544.31;;;33.38;29.97
27729;BME280;15126;42.186;24.340;2023-08-07T10:59:51;98547.34;;;33.40;29.21
27729;BME280;15126;42.186;24.340;2023-08-07T11:02:27;98541.13;;;33.53;29.79
27729;BME280;15126;42.186;24.340;2023-08-07T11:04:54;98546.03;;;33.61;29.46
27729;BME280;15126;42.186;24.340;2023-08-07T11:07:26;98537.03;;;33.66;26.67
27729;BME280;15126;42.186;24.340;2023-08-07T11:09:57;98531.84;;;33.74;28.11
27729;BME280;15126;42.186;24.340;2023-08-07T11:12:31;98535.81;;;33.79;26.25
27729;BME280;15126;42.186;24.340;2023-08-07T11:14:59;98527.59;;;33.66;26.19
27729;BME280;15126;42.186;24.340;2023-08-07T11:17:27;98532.47;;;33.63;29.08
27729;BME280;15126;42.186;24.340;2023-08-07T11:19:56;98529.41;;;33.51;26.98
27729;BME280;15126;42.186;24.340;2023-08-07T11:22:24;98521.03;;;33.55;26.23
27729;BME280;15126;42.186;24.340;2023-08-07T11:24:51;98521.19;;;33.48;27.63
27729;BME280;15126;42.186;24.340;2023-08-07T11:27:20;98518.16;;;33.55;26.82
27729;BME280;15126;42.186;24.340;2023-08-07T11:29:47;98513.88;;;33.47;27.31
27729;BME280;15126;42.186;24.340;2023-08-07T11:32:16;98522.72;;;33.49;26.72
27729;BME280;15126;42.186;24.340;2023-08-07T11:34:48;98518.44;;;33.50;27.62
27729;BME280;15126;42.186;24.340;2023-08-07T11:37:15;98515.09;;;33.53;26.37
27729;BME280;15126;42.186;24.340;2023-08-07T11:39:42;98506.28;;;33.61;28.29
27729;BME280;15126;42.186;24.340;2023-08-07T11:42:09;98487.41;;;33.60;29.10
27729;BME280;15126;42.186;24.340;2023-08-07T11:44:45;98495.91;;;33.68;27.61
27729;BME280;15126;42.186;24.340;2023-08-07T11:47:16;98496.41;;;33.64;28.23
27729;BME280;15126;42.186;24.340;2023-08-07T11:49:43;98500.47;;;33.80;28.19
27729;BME280;15126;42.186;24.340;2023-08-07T11:52:10;98506.13;;;33.78;27.29
27729;BME280;15126;42.186;24.340;2023-08-07T11:54:39;98499.41;;;33.85;26.54
27729;BME280;15126;42.186;24.340;2023-08-07T11:57:15;98495.16;;;33.86;25.67
27729;BME280;15126;42.186;24.340;2023-08-07T11:59:42;98483.84;;;33.90;27.93
27729;BME280;15126;42.186;24.340;2023-08-07T12:02:12;98490.69;;;33.95;26.85
27729;BME280;15126;42.186;24.340;2023-08-07T12:04:41;98487.50;;;33.81;27.29
27729;BME280;15126;42.186;24.340;2023-08-07T12:07:08;98489.31;;;33.96;27.73
27729;BME280;15126;42.186;24.340;2023-08-07T12:09:36;98484.28;;;33.96;26.18
27729;BME280;15126;42.186;24.340;2023-08-07T12:12:07;98476.53;;;33.89;25.78
27729;BME280;15126;42.186;24.340;2023-08-07T12:14:38;98474.72;;;33.84;26.11
27729;BME280;15126;42.186;24.340;2023-08-07T12:17:08;98477.00;;;33.86;26.39
27729;BME280;15126;42.186;24.340;2023-08-07T12:19:39;98478.06;;;33.90;26.54
27729;BME280;15126;42.186;24.340;2023-08-07T12:22:10;98467.13;;;33.89;26.89
27729;BME280;15126;42.186;24.340;2023-08-07T12:24:37;98468.88;;;34.03;27.92
27729;BME280;15126;42.186;24.340;2023-08-07T12:27:13;98465.84;;;34.01;25.31
27729;BME280;15126;42.186;24.340;2023-08-07T12:29:41;98457.78;;;34.00;25.51
27729;BME280;15126;42.186;24.340;2023-08-07T12:32:08;98453.50;;;34.10;26.37
27729;BME280;15126;42.186;24.340;2023-08-07T12:34:37;98457.63;;;34.07;25.01
27729;BME280;15126;42.186;24.340;2023-08-07T12:37:07;98450.63;;;34.10;26.45
27729;BME280;15126;42.186;24.340;2023-08-07T12:39:38;98449.25;;;34.02;26.04
27729;BME280;15126;42.186;24.340;2023-08-07T12:42:05;98457.28;;;34.03;26.06
27729;BME280;15126;42.186;24.340;2023-08-07T12:44:34;98465.09;;;34.10;25.30
27729;BME280;15126;42.186;24.340;2023-08-07T12:47:06;98458.81;;;34.04;24.90
27729;BME280;15126;42.186;24.340;2023-08-07T12:49:33;98462.03;;;33.99;24.36
27729;BME280;15126;42.186;24.340;2023-08-07T12:52:03;98458.97;;;34.06;25.63
27729;BME280;15126;42.186;24.340;2023-08-07T12:54:33;98451.22;;;33.99;24.47